sensor_id;sensor_type;location;lat;lon;timestamp;pressure;altitude;pressure_sealevel;temperature
8227;BMP180;4154;48.810;9.012;2022-12-07T00:01:38;97058.00;;;4.00
8227;BMP180;4154;48.810;9.012;2022-12-07T00:04:06;97058.00;;;4.00
8227;BMP180;4154;48.810;9.012;2022-12-07T00:06:33;97059.00;;;3.90
8227;BMP180;4154;48.810;9.012;2022-12-07T00:09:00;97069.00;;;4.00
8227;BMP180;4154;48.810;9.012;2022-12-07T00:11:26;97055.00;;;4.00
8227;BMP180;4154;48.810;9.012;2022-12-07T00:14:01;97066.00;;;3.90
8227;BMP180;4154;48.810;9.012;2022-12-07T00:16:30;97060.00;;;3.90
8227;BMP180;4154;48.810;9.012;2022-12-07T00:18:57;97065.00;;;3.90
8227;BMP180;4154;48.810;9.012;2022-12-07T00:21:26;97065.00;;;3.90
8227;BMP180;4154;48.810;9.012;2022-12-07T00:23:54;97055.00;;;3.90
8227;BMP180;4154;48.810;9.012;2022-12-07T00:26:27;97053.00;;;3.90
8227;BMP180;4154;48.810;9.012;2022-12-07T00:28:58;97057.00;;;3.80
8227;BMP180;4154;48.810;9.012;2022-12-07T00:31:29;97059.00;;;3.90
8227;BMP180;4154;48.810;9.012;2022-12-07T00:33:55;97056.00;;;3.90
8227;BMP180;4154;48.810;9.012;2022-12-07T00:36:24;97045.00;;;3.90
8227;BMP180;4154;48.810;9.012;2022-12-07T00:38:50;97048.00;;;3.80
8227;BMP180;4154;48.810;9.012;2022-12-07T00:41:20;97056.00;;;3.80
8227;BMP180;4154;48.810;9.012;2022-12-07T00:43:47;97044.00;;;3.80
8227;BMP180;4154;48.810;9.012;2022-12-07T00:46:14;97040.00;;;3.80
8227;BMP180;4154;48.810;9.012;2022-12-07T00:48:41;97045.00;;;3.80
8227;BMP180;4154;48.810;9.012;2022-12-07T00:51:08;97042.00;;;3.80
8227;BMP180;4154;48.810;9.012;2022-12-07T00:53:35;97042.00;;;3.80
8227;BMP180;4154;48.810;9.012;2022-12-07T00:58:57;97054.00;;;3.80
8227;BMP180;4154;48.810;9.012;2022-12-07T01:01:26;97052.00;;;3.80
8227;BMP180;4154;48.810;9.012;2022-12-07T01:03:52;97060.00;;;3.70
8227;BMP180;4154;48.810;9.012;2022-12-07T01:06:20;97060.00;;;3.80
8227;BMP180;4154;48.810;9.012;2022-12-07T01:08:46;97050.00;;;3.80
8227;BMP180;4154;48.810;9.012;2022-12-07T01:11:17;97047.00;;;3.80
8227;BMP180;4154;48.810;9.012;2022-12-07T01:13:43;97052.00;;;3.80
8227;BMP180;4154;48.810;9.012;2022-12-07T01:16:13;97042.00;;;3.80
8227;BMP180;4154;48.810;9.012;2022-12-07T01:18:41;97051.00;;;3.80
8227;BMP180;4154;48.810;9.012;2022-12-07T01:21:12;97055.00;;;3.70
8227;BMP180;4154;48.810;9.012;2022-12-07T01:23:39;97052.00;;;3.70
8227;BMP180;4154;48.810;9.012;2022-12-07T01:26:10;97049.00;;;3.70
8227;BMP180;4154;48.810;9.012;2022-12-07T01:28:37;97058.00;;;3.70
8227;BMP180;4154;48.810;9.012;2022-12-07T01:31:10;97059.00;;;3.70
8227;BMP180;4154;48.810;9.012;2022-12-07T01:33:46;97061.00;;;3.70
8227;BMP180;4154;48.810;9.012;2022-12-07T01:36:31;97068.00;;;3.70
8227;BMP180;4154;48.810;9.012;2022-12-07T01:39:01;97060.00;;;3.70
8227;BMP180;4154;48.810;9.012;2022-12-07T01:41:32;97066.00;;;3.80
8227;BMP180;4154;48.810;9.012;2022-12-07T01:44:31;97064.00;;;3.80
8227;BMP180;4154;48.810;9.012;2022-12-07T01:47:01;97069.00;;;3.70
8227;BMP180;4154;48.810;9.012;2022-12-07T01:49:36;97063.00;;;3.70
8227;BMP180;4154;48.810;9.012;2022-12-07T01:52:25;97058.00;;;3.80
8227;BMP180;4154;48.810;9.012;2022-12-07T01:55:01;97067.00;;;3.80
8227;BMP180;4154;48.810;9.012;2022-12-07T01:57:28;97067.00;;;3.70
8227;BMP180;4154;48.810;9.012;2022-12-07T01:59:56;97063.00;;;3.80
8227;BMP180;4154;48.810;9.012;2022-12-07T02:02:36;97061.00;;;3.80
8227;BMP180;4154;48.810;9.012;2022-12-07T02:05:06;97065.00;;;3.70
8227;BMP180;4154;48.810;9.012;2022-12-07T02:07:34;97069.00;;;3.70
8227;BMP180;4154;48.810;9.012;2022-12-07T02:10:23;97067.00;;;3.80
8227;BMP180;4154;48.810;9.012;2022-12-07T02:13:11;97070.00;;;3.80
8227;BMP180;4154;48.810;9.012;2022-12-07T02:21:11;97056.00;;;3.80
8227;BMP180;4154;48.810;9.012;2022-12-07T02:26:55;97056.00;;;3.80
8227;BMP180;4154;48.810;9.012;2022-12-07T02:30:00;97051.00;;;3.70
8227;BMP180;4154;48.810;9.012;2022-12-07T02:33:11;97050.00;;;3.70
8227;BMP180;4154;48.810;9.012;2022-12-07T02:35:59;97055.00;;;3.70
8227;BMP180;4154;48.810;9.012;2022-12-07T02:38:53;97042.00;;;3.70
8227;BMP180;4154;48.810;9.012;2022-12-07T02:41:27;97032.00;;;3.70
8227;BMP180;4154;48.810;9.012;2022-12-07T02:44:00;97039.00;;;3.70
8227;BMP180;4154;48.810;9.012;2022-12-07T02:46:40;97037.00;;;3.70
8227;BMP180;4154;48.810;9.012;2022-12-07T02:49:07;97030.00;;;3.70
8227;BMP180;4154;48.810;9.012;2022-12-07T02:51:38;97039.00;;;3.70
8227;BMP180;4154;48.810;9.012;2022-12-07T02:54:16;97037.00;;;3.70
8227;BMP180;4154;48.810;9.012;2022-12-07T03:02:28;97035.00;;;3.70
8227;BMP180;4154;48.810;9.012;2022-12-07T03:08:07;97021.00;;;3.60
8227;BMP180;4154;48.810;9.012;2022-12-07T03:10:54;97024.00;;;3.60
8227;BMP180;4154;48.810;9.012;2022-12-07T03:16:25;97016.00;;;3.70
8227;BMP180;4154;48.810;9.012;2022-12-07T03:19:02;97025.00;;;3.60
8227;BMP180;4154;48.810;9.012;2022-12-07T03:21:57;97027.00;;;3.70
8227;BMP180;4154;48.810;9.012;2022-12-07T03:24:27;97019.00;;;3.70
8227;BMP180;4154;48.810;9.012;2022-12-07T03:27:07;97015.00;;;3.60
8227;BMP180;4154;48.810;9.012;2022-12-07T03:29:43;97020.00;;;3.60
8227;BMP180;4154;48.810;9.012;2022-12-07T03:32:25;97019.00;;;3.60
8227;BMP180;4154;48.810;9.012;2022-12-07T03:35:02;97010.00;;;3.60
8227;BMP180;4154;48.810;9.012;2022-12-07T03:37:35;97005.00;;;3.60
8227;BMP180;4154;48.810;9.012;2022-12-07T03:40:26;97012.00;;;3.70
8227;BMP180;4154;48.810;9.012;2022-12-07T03:42:55;97016.00;;;3.60
8227;BMP180;4154;48.810;9.012;2022-12-07T03:46:19;97011.00;;;3.60
8227;BMP180;4154;48.810;9.012;2022-12-07T03:49:11;97017.00;;;3.60
8227;BMP180;4154;48.810;9.012;2022-12-07T03:52:04;97013.00;;;3.60
8227;BMP180;4154;48.810;9.012;2022-12-07T03:54:52;97015.00;;;3.60
8227;BMP180;4154;48.810;9.012;2022-12-07T03:57:22;97011.00;;;3.50
8227;BMP180;4154;48.810;9.012;2022-12-07T03:59:51;97015.00;;;3.60
8227;BMP180;4154;48.810;9.012;2022-12-07T04:02:18;97009.00;;;3.50
8227;BMP180;4154;48.810;9.012;2022-12-07T04:04:44;97009.00;;;3.50
8227;BMP180;4154;48.810;9.012;2022-12-07T04:07:10;97006.00;;;3.50
8227;BMP180;4154;48.810;9.012;2022-12-07T04:09:36;97018.00;;;3.50
8227;BMP180;4154;48.810;9.012;2022-12-07T04:12:03;97009.00;;;3.50
8227;BMP180;4154;48.810;9.012;2022-12-07T04:14:29;97011.00;;;3.50
8227;BMP180;4154;48.810;9.012;2022-12-07T04:16:58;97004.00;;;3.50
8227;BMP180;4154;48.810;9.012;2022-12-07T04:19:31;97011.00;;;3.50
8227;BMP180;4154;48.810;9.012;2022-12-07T04:22:00;96992.00;;;3.60
8227;BMP180;4154;48.810;9.012;2022-12-07T04:24:26;96992.00;;;3.60
8227;BMP180;4154;48.810;9.012;2022-12-07T04:26:53;96984.00;;;3.60
8227;BMP180;4154;48.810;9.012;2022-12-07T04:29:19;96977.00;;;3.50
8227;BMP180;4154;48.810;9.012;2022-12-07T04:31:45;96971.00;;;3.50
8227;BMP180;4154;48.810;9.012;2022-12-07T04:34:13;96962.00;;;3.40
8227;BMP180;4154;48.810;9.012;2022-12-07T04:36:39;96957.00;;;3.40
8227;BMP180;4154;48.810;9.012;2022-12-07T04:39:07;96953.00;;;3.40
8227;BMP180;4154;48.810;9.012;2022-12-07T04:41:33;96946.00;;;3.30
8227;BMP180;4154;48.810;9.012;2022-12-07T04:44:02;96949.00;;;3.30
8227;BMP180;4154;48.810;9.012;2022-12-07T04:46:31;96946.00;;;3.30
8227;BMP180;4154;48.810;9.012;2022-12-07T04:48:57;96946.00;;;3.30
8227;BMP180;4154;48.810;9.012;2022-12-07T04:51:27;96954.00;;;3.30
8227;BMP180;4154;48.810;9.012;2022-12-07T04:53:54;96953.00;;;3.30
8227;BMP180;4154;48.810;9.012;2022-12-07T04:56:21;96961.00;;;3.20
8227;BMP180;4154;48.810;9.012;2022-12-07T04:58:48;96964.00;;;3.20
8227;BMP180;4154;48.810;9.012;2022-12-07T05:01:16;96961.00;;;3.10
8227;BMP180;4154;48.810;9.012;2022-12-07T05:03:43;96962.00;;;3.10
8227;BMP180;4154;48.810;9.012;2022-12-07T05:06:10;96953.00;;;3.10
8227;BMP180;4154;48.810;9.012;2022-12-07T05:08:37;96957.00;;;3.10
8227;BMP180;4154;48.810;9.012;2022-12-07T05:11:04;96959.00;;;3.10
8227;BMP180;4154;48.810;9.012;2022-12-07T05:13:31;96969.00;;;3.10
8227;BMP180;4154;48.810;9.012;2022-12-07T05:15:57;96972.00;;;3.10
8227;BMP180;4154;48.810;9.012;2022-12-07T05:18:23;96977.00;;;3.10
8227;BMP180;4154;48.810;9.012;2022-12-07T05:20:50;96967.00;;;3.10
8227;BMP180;4154;48.810;9.012;2022-12-07T05:23:17;96968.00;;;3.10
8227;BMP180;4154;48.810;9.012;2022-12-07T05:25:44;96978.00;;;3.00
8227;BMP180;4154;48.810;9.012;2022-12-07T05:28:10;96977.00;;;3.00
8227;BMP180;4154;48.810;9.012;2022-12-07T05:30:37;96981.00;;;3.00
8227;BMP180;4154;48.810;9.012;2022-12-07T05:33:03;96981.00;;;2.90
8227;BMP180;4154;48.810;9.012;2022-12-07T05:35:29;96976.00;;;2.90
8227;BMP180;4154;48.810;9.012;2022-12-07T05:37:56;96982.00;;;2.80
8227;BMP180;4154;48.810;9.012;2022-12-07T05:40:23;96987.00;;;2.80
8227;BMP180;4154;48.810;9.012;2022-12-07T05:42:49;96977.00;;;2.70
8227;BMP180;4154;48.810;9.012;2022-12-07T05:45:15;96978.00;;;2.70
8227;BMP180;4154;48.810;9.012;2022-12-07T05:47:41;96977.00;;;2.80
8227;BMP180;4154;48.810;9.012;2022-12-07T05:50:07;96982.00;;;2.80
8227;BMP180;4154;48.810;9.012;2022-12-07T05:52:33;96977.00;;;2.80
8227;BMP180;4154;48.810;9.012;2022-12-07T05:54:59;96979.00;;;2.70
8227;BMP180;4154;48.810;9.012;2022-12-07T05:57:25;96985.00;;;2.70
8227;BMP180;4154;48.810;9.012;2022-12-07T05:59:52;96978.00;;;2.70
8227;BMP180;4154;48.810;9.012;2022-12-07T06:02:18;96985.00;;;2.70
8227;BMP180;4154;48.810;9.012;2022-12-07T06:04:46;96980.00;;;2.70
8227;BMP180;4154;48.810;9.012;2022-12-07T06:07:14;96973.00;;;2.70
8227;BMP180;4154;48.810;9.012;2022-12-07T06:09:40;96982.00;;;2.70
8227;BMP180;4154;48.810;9.012;2022-12-07T06:12:11;96982.00;;;2.70
8227;BMP180;4154;48.810;9.012;2022-12-07T06:14:56;96987.00;;;2.70
8227;BMP180;4154;48.810;9.012;2022-12-07T06:17:22;96984.00;;;2.70
8227;BMP180;4154;48.810;9.012;2022-12-07T06:19:48;96989.00;;;2.70
8227;BMP180;4154;48.810;9.012;2022-12-07T06:22:14;96985.00;;;2.70
8227;BMP180;4154;48.810;9.012;2022-12-07T06:24:42;96993.00;;;2.70
8227;BMP180;4154;48.810;9.012;2022-12-07T06:27:09;96992.00;;;2.80
8227;BMP180;4154;48.810;9.012;2022-12-07T06:29:35;97000.00;;;2.80
8227;BMP180;4154;48.810;9.012;2022-12-07T06:32:02;96998.00;;;2.80
8227;BMP180;4154;48.810;9.012;2022-12-07T06:34:29;96993.00;;;2.80
8227;BMP180;4154;48.810;9.012;2022-12-07T06:36:55;96989.00;;;2.80
8227;BMP180;4154;48.810;9.012;2022-12-07T06:39:24;96997.00;;;2.80
8227;BMP180;4154;48.810;9.012;2022-12-07T06:41:51;96991.00;;;2.70
8227;BMP180;4154;48.810;9.012;2022-12-07T06:44:18;96988.00;;;2.70
8227;BMP180;4154;48.810;9.012;2022-12-07T06:46:44;96985.00;;;2.90
8227;BMP180;4154;48.810;9.012;2022-12-07T06:49:10;96992.00;;;2.90
8227;BMP180;4154;48.810;9.012;2022-12-07T06:51:37;96984.00;;;2.80
8227;BMP180;4154;48.810;9.012;2022-12-07T06:54:07;96976.00;;;2.80
8227;BMP180;4154;48.810;9.012;2022-12-07T06:56:33;96971.00;;;2.90
8227;BMP180;4154;48.810;9.012;2022-12-07T06:58:59;96974.00;;;2.90
8227;BMP180;4154;48.810;9.012;2022-12-07T07:01:25;96973.00;;;2.90
8227;BMP180;4154;48.810;9.012;2022-12-07T07:03:52;96969.00;;;2.80
8227;BMP180;4154;48.810;9.012;2022-12-07T07:11:27;97000.00;;;2.80
8227;BMP180;4154;48.810;9.012;2022-12-07T07:14:02;97004.00;;;2.80
8227;BMP180;4154;48.810;9.012;2022-12-07T07:16:30;97003.00;;;2.80
8227;BMP180;4154;48.810;9.012;2022-12-07T07:18:56;97005.00;;;2.80
8227;BMP180;4154;48.810;9.012;2022-12-07T07:21:23;97002.00;;;2.90
8227;BMP180;4154;48.810;9.012;2022-12-07T07:23:49;97000.00;;;2.90
8227;BMP180;4154;48.810;9.012;2022-12-07T07:26:15;96999.00;;;3.00
8227;BMP180;4154;48.810;9.012;2022-12-07T07:28:41;97004.00;;;3.00
8227;BMP180;4154;48.810;9.012;2022-12-07T07:31:07;97005.00;;;2.90
8227;BMP180;4154;48.810;9.012;2022-12-07T07:33:33;97010.00;;;2.90
8227;BMP180;4154;48.810;9.012;2022-12-07T07:35:59;97013.00;;;2.90
8227;BMP180;4154;48.810;9.012;2022-12-07T07:38:25;97007.00;;;2.90
8227;BMP180;4154;48.810;9.012;2022-12-07T07:40:51;97020.00;;;2.90
8227;BMP180;4154;48.810;9.012;2022-12-07T07:43:17;97012.00;;;3.00
8227;BMP180;4154;48.810;9.012;2022-12-07T07:45:44;97013.00;;;3.00
8227;BMP180;4154;48.810;9.012;2022-12-07T07:48:10;97013.00;;;3.00
8227;BMP180;4154;48.810;9.012;2022-12-07T07:50:36;97008.00;;;3.00
8227;BMP180;4154;48.810;9.012;2022-12-07T07:53:02;97028.00;;;3.00
8227;BMP180;4154;48.810;9.012;2022-12-07T07:55:28;97023.00;;;3.10
8227;BMP180;4154;48.810;9.012;2022-12-07T07:57:54;97027.00;;;3.10
8227;BMP180;4154;48.810;9.012;2022-12-07T08:00:21;97015.00;;;3.10
8227;BMP180;4154;48.810;9.012;2022-12-07T08:02:47;97023.00;;;3.20
8227;BMP180;4154;48.810;9.012;2022-12-07T08:05:43;97022.00;;;3.20
8227;BMP180;4154;48.810;9.012;2022-12-07T08:08:09;97028.00;;;3.10
8227;BMP180;4154;48.810;9.012;2022-12-07T08:10:35;97029.00;;;3.20
8227;BMP180;4154;48.810;9.012;2022-12-07T08:13:09;97028.00;;;3.10
8227;BMP180;4154;48.810;9.012;2022-12-07T08:15:48;97022.00;;;3.10
8227;BMP180;4154;48.810;9.012;2022-12-07T08:18:14;97022.00;;;3.20
8227;BMP180;4154;48.810;9.012;2022-12-07T08:20:41;97024.00;;;3.20
8227;BMP180;4154;48.810;9.012;2022-12-07T08:23:08;97022.00;;;3.20
8227;BMP180;4154;48.810;9.012;2022-12-07T08:25:35;97021.00;;;3.30
8227;BMP180;4154;48.810;9.012;2022-12-07T08:28:01;97027.00;;;3.30
8227;BMP180;4154;48.810;9.012;2022-12-07T08:30:29;97039.00;;;3.30
8227;BMP180;4154;48.810;9.012;2022-12-07T08:32:55;97033.00;;;3.30
8227;BMP180;4154;48.810;9.012;2022-12-07T08:35:22;97038.00;;;3.30
8227;BMP180;4154;48.810;9.012;2022-12-07T08:37:48;97039.00;;;3.50
8227;BMP180;4154;48.810;9.012;2022-12-07T08:40:17;97028.00;;;3.50
8227;BMP180;4154;48.810;9.012;2022-12-07T08:42:53;97043.00;;;3.50
8227;BMP180;4154;48.810;9.012;2022-12-07T08:46:23;97039.00;;;3.60
8227;BMP180;4154;48.810;9.012;2022-12-07T08:49:20;97038.00;;;3.70
8227;BMP180;4154;48.810;9.012;2022-12-07T08:51:53;97042.00;;;3.70
8227;BMP180;4154;48.810;9.012;2022-12-07T08:54:42;97037.00;;;3.70
8227;BMP180;4154;48.810;9.012;2022-12-07T08:58:05;97043.00;;;3.80
8227;BMP180;4154;48.810;9.012;2022-12-07T09:01:41;97041.00;;;3.80
8227;BMP180;4154;48.810;9.012;2022-12-07T09:04:36;97033.00;;;3.80
8227;BMP180;4154;48.810;9.012;2022-12-07T09:18:43;97035.00;;;4.20
8227;BMP180;4154;48.810;9.012;2022-12-07T09:25:44;97029.00;;;4.20
8227;BMP180;4154;48.810;9.012;2022-12-07T09:51:22;97027.00;;;4.30
8227;BMP180;4154;48.810;9.012;2022-12-07T10:10:17;97015.00;;;4.70
8227;BMP180;4154;48.810;9.012;2022-12-07T10:13:44;97011.00;;;4.70
8227;BMP180;4154;48.810;9.012;2022-12-07T10:18:58;97000.00;;;4.70
8227;BMP180;4154;48.810;9.012;2022-12-07T10:21:59;96993.00;;;4.70
8227;BMP180;4154;48.810;9.012;2022-12-07T10:24:26;97006.00;;;4.70
8227;BMP180;4154;48.810;9.012;2022-12-07T10:26:53;97000.00;;;4.70
8227;BMP180;4154;48.810;9.012;2022-12-07T10:29:34;97006.00;;;4.60
8227;BMP180;4154;48.810;9.012;2022-12-07T10:34:43;97000.00;;;4.60
8227;BMP180;4154;48.810;9.012;2022-12-07T10:37:16;97002.00;;;4.60
8227;BMP180;4154;48.810;9.012;2022-12-07T10:39:55;97001.00;;;4.60
8227;BMP180;4154;48.810;9.012;2022-12-07T10:42:30;96991.00;;;4.80
8227;BMP180;4154;48.810;9.012;2022-12-07T10:45:13;96987.00;;;4.80
8227;BMP180;4154;48.810;9.012;2022-12-07T10:51:09;96998.00;;;5.00
8227;BMP180;4154;48.810;9.012;2022-12-07T10:54:03;96987.00;;;4.90
8227;BMP180;4154;48.810;9.012;2022-12-07T10:57:17;96980.00;;;5.00
8227;BMP180;4154;48.810;9.012;2022-12-07T11:00:21;96979.00;;;4.90
8227;BMP180;4154;48.810;9.012;2022-12-07T11:02:54;96983.00;;;4.90
8227;BMP180;4154;48.810;9.012;2022-12-07T11:08:22;96967.00;;;4.90
8227;BMP180;4154;48.810;9.012;2022-12-07T11:11:13;96961.00;;;4.90
8227;BMP180;4154;48.810;9.012;2022-12-07T11:13:50;96964.00;;;4.90
8227;BMP180;4154;48.810;9.012;2022-12-07T11:16:19;96956.00;;;4.80
8227;BMP180;4154;48.810;9.012;2022-12-07T11:30:39;96968.00;;;4.60
8227;BMP180;4154;48.810;9.012;2022-12-07T11:33:15;96956.00;;;4.70
8227;BMP180;4154;48.810;9.012;2022-12-07T11:38:55;96961.00;;;4.70
8227;BMP180;4154;48.810;9.012;2022-12-07T11:41:29;96958.00;;;4.70
8227;BMP180;4154;48.810;9.012;2022-12-07T11:44:08;96955.00;;;4.70
8227;BMP180;4154;48.810;9.012;2022-12-07T11:47:17;96961.00;;;4.80
8227;BMP180;4154;48.810;9.012;2022-12-07T11:50:22;96946.00;;;4.80
8227;BMP180;4154;48.810;9.012;2022-12-07T11:52:52;96934.00;;;4.90
8227;BMP180;4154;48.810;9.012;2022-12-07T11:58:42;96949.00;;;4.60
8227;BMP180;4154;48.810;9.012;2022-12-07T12:06:45;96939.00;;;4.40
8227;BMP180;4154;48.810;9.012;2022-12-07T12:09:32;96936.00;;;4.50
8227;BMP180;4154;48.810;9.012;2022-12-07T12:15:45;96933.00;;;4.40
8227;BMP180;4154;48.810;9.012;2022-12-07T12:21:17;96932.00;;;4.50
8227;BMP180;4154;48.810;9.012;2022-12-07T12:24:00;96939.00;;;4.60
8227;BMP180;4154;48.810;9.012;2022-12-07T12:26:32;96928.00;;;4.50
8227;BMP180;4154;48.810;9.012;2022-12-07T12:29:06;96932.00;;;4.60
8227;BMP180;4154;48.810;9.012;2022-12-07T12:31:40;96930.00;;;4.50
8227;BMP180;4154;48.810;9.012;2022-12-07T12:34:34;96925.00;;;4.50
8227;BMP180;4154;48.810;9.012;2022-12-07T12:37:50;96923.00;;;4.40
8227;BMP180;4154;48.810;9.012;2022-12-07T12:42:55;96928.00;;;4.50
8227;BMP180;4154;48.810;9.012;2022-12-07T12:45:25;96922.00;;;4.50
8227;BMP180;4154;48.810;9.012;2022-12-07T12:47:58;96909.00;;;4.60
8227;BMP180;4154;48.810;9.012;2022-12-07T12:50:36;96919.00;;;4.60
8227;BMP180;4154;48.810;9.012;2022-12-07T12:53:24;96913.00;;;4.60
8227;BMP180;4154;48.810;9.012;2022-12-07T12:58:45;96918.00;;;4.50
8227;BMP180;4154;48.810;9.012;2022-12-07T13:01:42;96906.00;;;4.50
8227;BMP180;4154;48.810;9.012;2022-12-07T13:10:36;96899.00;;;4.60
8227;BMP180;4154;48.810;9.012;2022-12-07T13:23:59;96882.00;;;4.70
8227;BMP180;4154;48.810;9.012;2022-12-07T13:26:37;96887.00;;;4.70
8227;BMP180;4154;48.810;9.012;2022-12-07T13:31:53;96887.00;;;4.70
8227;BMP180;4154;48.810;9.012;2022-12-07T13:34:40;96880.00;;;4.70
8227;BMP180;4154;48.810;9.012;2022-12-07T13:37:14;96882.00;;;4.70
8227;BMP180;4154;48.810;9.012;2022-12-07T13:39:57;96884.00;;;4.70
8227;BMP180;4154;48.810;9.012;2022-12-07T13:42:33;96884.00;;;4.70
8227;BMP180;4154;48.810;9.012;2022-12-07T13:45:21;96876.00;;;4.70
8227;BMP180;4154;48.810;9.012;2022-12-07T13:47:55;96873.00;;;4.70
8227;BMP180;4154;48.810;9.012;2022-12-07T13:50:31;96877.00;;;4.70
8227;BMP180;4154;48.810;9.012;2022-12-07T13:53:00;96880.00;;;4.80
8227;BMP180;4154;48.810;9.012;2022-12-07T13:55:28;96883.00;;;4.80
8227;BMP180;4154;48.810;9.012;2022-12-07T13:57:55;96880.00;;;4.80
8227;BMP180;4154;48.810;9.012;2022-12-07T14:00:27;96875.00;;;4.80
8227;BMP180;4154;48.810;9.012;2022-12-07T14:02:57;96876.00;;;4.90
8227;BMP180;4154;48.810;9.012;2022-12-07T14:09:26;96875.00;;;4.80
8227;BMP180;4154;48.810;9.012;2022-12-07T14:11:55;96882.00;;;4.80
8227;BMP180;4154;48.810;9.012;2022-12-07T14:14:30;96875.00;;;4.80
8227;BMP180;4154;48.810;9.012;2022-12-07T14:17:17;96871.00;;;4.80
8227;BMP180;4154;48.810;9.012;2022-12-07T14:20:27;96868.00;;;4.80
8227;BMP180;4154;48.810;9.012;2022-12-07T14:22:34;96876.00;;;4.90
8227;BMP180;4154;48.810;9.012;2022-12-07T14:25:26;96874.00;;;4.90
8227;BMP180;4154;48.810;9.012;2022-12-07T14:28:00;96871.00;;;4.90
8227;BMP180;4154;48.810;9.012;2022-12-07T14:30:32;96878.00;;;4.80
8227;BMP180;4154;48.810;9.012;2022-12-07T14:33:04;96875.00;;;4.60
8227;BMP180;4154;48.810;9.012;2022-12-07T14:35:32;96884.00;;;4.60
8227;BMP180;4154;48.810;9.012;2022-12-07T14:37:58;96869.00;;;4.70
8227;BMP180;4154;48.810;9.012;2022-12-07T14:40:29;96882.00;;;4.60
8227;BMP180;4154;48.810;9.012;2022-12-07T14:43:05;96876.00;;;4.60
8227;BMP180;4154;48.810;9.012;2022-12-07T14:45:32;96874.00;;;4.60
8227;BMP180;4154;48.810;9.012;2022-12-07T14:47:59;96871.00;;;4.60
8227;BMP180;4154;48.810;9.012;2022-12-07T14:50:25;96871.00;;;4.50
8227;BMP180;4154;48.810;9.012;2022-12-07T14:53:12;96875.00;;;4.50
8227;BMP180;4154;48.810;9.012;2022-12-07T14:55:58;96867.00;;;4.60
8227;BMP180;4154;48.810;9.012;2022-12-07T14:58:24;96886.00;;;4.50
8227;BMP180;4154;48.810;9.012;2022-12-07T15:00:51;96884.00;;;4.50
8227;BMP180;4154;48.810;9.012;2022-12-07T15:03:17;96878.00;;;4.50
8227;BMP180;4154;48.810;9.012;2022-12-07T15:05:43;96877.00;;;4.50
8227;BMP180;4154;48.810;9.012;2022-12-07T15:08:12;96877.00;;;4.50
8227;BMP180;4154;48.810;9.012;2022-12-07T15:10:38;96871.00;;;4.40
8227;BMP180;4154;48.810;9.012;2022-12-07T15:13:06;96874.00;;;4.30
8227;BMP180;4154;48.810;9.012;2022-12-07T15:15:53;96881.00;;;4.20
8227;BMP180;4154;48.810;9.012;2022-12-07T15:18:20;96882.00;;;4.20
8227;BMP180;4154;48.810;9.012;2022-12-07T15:20:47;96875.00;;;4.20
8227;BMP180;4154;48.810;9.012;2022-12-07T15:23:13;96884.00;;;4.20
8227;BMP180;4154;48.810;9.012;2022-12-07T15:25:46;96876.00;;;4.20
8227;BMP180;4154;48.810;9.012;2022-12-07T15:28:13;96880.00;;;4.10
8227;BMP180;4154;48.810;9.012;2022-12-07T15:30:41;96865.00;;;4.20
8227;BMP180;4154;48.810;9.012;2022-12-07T15:33:09;96881.00;;;4.00
8227;BMP180;4154;48.810;9.012;2022-12-07T15:35:43;96874.00;;;4.00
8227;BMP180;4154;48.810;9.012;2022-12-07T15:38:10;96875.00;;;4.00
8227;BMP180;4154;48.810;9.012;2022-12-07T15:40:36;96876.00;;;3.90
8227;BMP180;4154;48.810;9.012;2022-12-07T15:43:03;96871.00;;;3.90
8227;BMP180;4154;48.810;9.012;2022-12-07T15:45:29;96878.00;;;3.90
8227;BMP180;4154;48.810;9.012;2022-12-07T15:47:55;96871.00;;;3.90
8227;BMP180;4154;48.810;9.012;2022-12-07T15:50:21;96868.00;;;3.90
8227;BMP180;4154;48.810;9.012;2022-12-07T15:52:48;96863.00;;;3.90
8227;BMP180;4154;48.810;9.012;2022-12-07T15:55:14;96865.00;;;3.90
8227;BMP180;4154;48.810;9.012;2022-12-07T15:57:40;96871.00;;;3.70
8227;BMP180;4154;48.810;9.012;2022-12-07T16:00:08;96860.00;;;3.70
8227;BMP180;4154;48.810;9.012;2022-12-07T16:02:36;96868.00;;;3.60
8227;BMP180;4154;48.810;9.012;2022-12-07T16:05:02;96867.00;;;3.60
8227;BMP180;4154;48.810;9.012;2022-12-07T16:07:28;96860.00;;;3.50
8227;BMP180;4154;48.810;9.012;2022-12-07T16:09:55;96861.00;;;3.60
8227;BMP180;4154;48.810;9.012;2022-12-07T16:12:21;96867.00;;;3.60
8227;BMP180;4154;48.810;9.012;2022-12-07T16:14:47;96860.00;;;3.70
8227;BMP180;4154;48.810;9.012;2022-12-07T16:17:13;96870.00;;;3.70
8227;BMP180;4154;48.810;9.012;2022-12-07T16:19:39;96866.00;;;3.70
8227;BMP180;4154;48.810;9.012;2022-12-07T16:22:05;96862.00;;;3.70
8227;BMP180;4154;48.810;9.012;2022-12-07T16:24:32;96858.00;;;3.70
8227;BMP180;4154;48.810;9.012;2022-12-07T16:26:58;96871.00;;;3.70
8227;BMP180;4154;48.810;9.012;2022-12-07T16:29:24;96858.00;;;3.80
8227;BMP180;4154;48.810;9.012;2022-12-07T16:31:51;96861.00;;;3.80
8227;BMP180;4154;48.810;9.012;2022-12-07T16:34:18;96866.00;;;3.70
8227;BMP180;4154;48.810;9.012;2022-12-07T16:36:44;96859.00;;;3.70
8227;BMP180;4154;48.810;9.012;2022-12-07T16:39:10;96856.00;;;3.60
8227;BMP180;4154;48.810;9.012;2022-12-07T16:41:36;96843.00;;;3.60
8227;BMP180;4154;48.810;9.012;2022-12-07T16:44:10;96838.00;;;3.60
8227;BMP180;4154;48.810;9.012;2022-12-07T16:46:38;96825.00;;;3.70
8227;BMP180;4154;48.810;9.012;2022-12-07T16:49:04;96831.00;;;3.70
8227;BMP180;4154;48.810;9.012;2022-12-07T16:51:31;96836.00;;;3.80
8227;BMP180;4154;48.810;9.012;2022-12-07T16:53:57;96826.00;;;3.80
8227;BMP180;4154;48.810;9.012;2022-12-07T16:56:24;96819.00;;;3.80
8227;BMP180;4154;48.810;9.012;2022-12-07T16:58:52;96818.00;;;3.70
8227;BMP180;4154;48.810;9.012;2022-12-07T17:01:20;96819.00;;;3.70
8227;BMP180;4154;48.810;9.012;2022-12-07T17:03:48;96813.00;;;3.70
8227;BMP180;4154;48.810;9.012;2022-12-07T17:06:18;96806.00;;;3.70
8227;BMP180;4154;48.810;9.012;2022-12-07T17:08:45;96803.00;;;3.70
8227;BMP180;4154;48.810;9.012;2022-12-07T17:11:22;96799.00;;;3.70
8227;BMP180;4154;48.810;9.012;2022-12-07T17:13:49;96797.00;;;3.60
8227;BMP180;4154;48.810;9.012;2022-12-07T17:16:35;96802.00;;;3.70
8227;BMP180;4154;48.810;9.012;2022-12-07T17:19:08;96787.00;;;3.60
8227;BMP180;4154;48.810;9.012;2022-12-07T17:21:35;96788.00;;;3.50
8227;BMP180;4154;48.810;9.012;2022-12-07T17:24:05;96791.00;;;3.60
8227;BMP180;4154;48.810;9.012;2022-12-07T17:26:32;96791.00;;;3.60
8227;BMP180;4154;48.810;9.012;2022-12-07T17:28:59;96790.00;;;3.50
8227;BMP180;4154;48.810;9.012;2022-12-07T17:31:25;96794.00;;;3.60
8227;BMP180;4154;48.810;9.012;2022-12-07T17:33:52;96785.00;;;3.50
8227;BMP180;4154;48.810;9.012;2022-12-07T17:36:24;96789.00;;;3.60
8227;BMP180;4154;48.810;9.012;2022-12-07T17:38:51;96784.00;;;3.60
8227;BMP180;4154;48.810;9.012;2022-12-07T17:41:28;96792.00;;;3.70
8227;BMP180;4154;48.810;9.012;2022-12-07T17:44:16;96783.00;;;3.60
8227;BMP180;4154;48.810;9.012;2022-12-07T17:46:43;96783.00;;;3.60
8227;BMP180;4154;48.810;9.012;2022-12-07T17:49:09;96791.00;;;3.60
8227;BMP180;4154;48.810;9.012;2022-12-07T17:51:35;96791.00;;;3.60
8227;BMP180;4154;48.810;9.012;2022-12-07T17:54:20;96783.00;;;3.60
8227;BMP180;4154;48.810;9.012;2022-12-07T17:56:47;96783.00;;;3.50